sensor_id;sensor_type;location;lat;lon;timestamp;P1;durP1;ratioP1;P2;durP2;ratioP2
52642;SDS011;38531;53.296;6.614;2022-12-08T00:00:00;0.98;;;0.20;;
52642;SDS011;38531;53.296;6.614;2022-12-08T00:02:26;0.20;;;0.10;;
52642;SDS011;38531;53.296;6.614;2022-12-08T00:04:52;0.10;;;0.10;;
52642;SDS011;38531;53.296;6.614;2022-12-08T00:07:37;2.60;;;0.20;;
52642;SDS011;38531;53.296;6.614;2022-12-08T00:10:21;0.80;;;0.10;;
52642;SDS011;38531;53.296;6.614;2022-12-08T00:12:47;0.10;;;0.10;;
52642;SDS011;38531;53.296;6.614;2022-12-08T00:15:13;0.10;;;0.10;;
52642;SDS011;38531;53.296;6.614;2022-12-08T00:17:38;0.80;;;0.20;;
52642;SDS011;38531;53.296;6.614;2022-12-08T00:20:04;0.30;;;0.13;;
52642;SDS011;38531;53.296;6.614;2022-12-08T00:22:30;2.63;;;0.10;;
52642;SDS011;38531;53.296;6.614;2022-12-08T00:24:56;0.10;;;0.10;;
52642;SDS011;38531;53.296;6.614;2022-12-08T00:27:22;0.32;;;0.15;;
52642;SDS011;38531;53.296;6.614;2022-12-08T00:29:48;1.77;;;0.20;;
52642;SDS011;38531;53.296;6.614;2022-12-08T00:32:13;2.90;;;0.30;;
52642;SDS011;38531;53.296;6.614;2022-12-08T00:34:39;2.17;;;0.20;;
52642;SDS011;38531;53.296;6.614;2022-12-08T00:37:05;1.40;;;0.20;;
52642;SDS011;38531;53.296;6.614;2022-12-08T00:39:30;2.28;;;0.20;;
52642;SDS011;38531;53.296;6.614;2022-12-08T00:41:56;1.88;;;0.20;;
52642;SDS011;38531;53.296;6.614;2022-12-08T00:44:37;0.38;;;0.13;;
52642;SDS011;38531;53.296;6.614;2022-12-08T00:47:04;2.72;;;0.20;;
52642;SDS011;38531;53.296;6.614;2022-12-08T00:49:30;0.30;;;0.20;;
52642;SDS011;38531;53.296;6.614;2022-12-08T00:51:55;0.20;;;0.20;;
52642;SDS011;38531;53.296;6.614;2022-12-08T00:54:21;0.93;;;0.20;;
52642;SDS011;38531;53.296;6.614;2022-12-08T00:56:47;0.47;;;0.10;;
52642;SDS011;38531;53.296;6.614;2022-12-08T00:59:13;0.57;;;0.20;;
52642;SDS011;38531;53.296;6.614;2022-12-08T01:01:39;0.25;;;0.20;;
52642;SDS011;38531;53.296;6.614;2022-12-08T01:04:06;0.10;;;0.10;;
52642;SDS011;38531;53.296;6.614;2022-12-08T01:06:34;0.10;;;0.10;;
52642;SDS011;38531;53.296;6.614;2022-12-08T01:09:02;1.65;;;0.30;;
52642;SDS011;38531;53.296;6.614;2022-12-08T01:11:29;0.15;;;0.15;;
52642;SDS011;38531;53.296;6.614;2022-12-08T01:13:55;0.43;;;0.15;;
52642;SDS011;38531;53.296;6.614;2022-12-08T01:16:24;0.98;;;0.30;;
52642;SDS011;38531;53.296;6.614;2022-12-08T01:18:52;0.45;;;0.10;;
52642;SDS011;38531;53.296;6.614;2022-12-08T01:21:21;1.35;;;0.20;;
52642;SDS011;38531;53.296;6.614;2022-12-08T01:23:46;1.85;;;0.10;;
52642;SDS011;38531;53.296;6.614;2022-12-08T01:26:13;0.10;;;0.10;;
52642;SDS011;38531;53.296;6.614;2022-12-08T01:28:40;0.82;;;0.20;;
52642;SDS011;38531;53.296;6.614;2022-12-08T01:31:10;0.52;;;0.20;;
52642;SDS011;38531;53.296;6.614;2022-12-08T01:33:39;4.60;;;0.20;;
52642;SDS011;38531;53.296;6.614;2022-12-08T01:36:05;0.20;;;0.20;;
52642;SDS011;38531;53.296;6.614;2022-12-08T01:38:34;1.40;;;0.20;;
52642;SDS011;38531;53.296;6.614;2022-12-08T01:41:00;1.35;;;0.25;;
52642;SDS011;38531;53.296;6.614;2022-12-08T01:43:42;0.25;;;0.20;;
52642;SDS011;38531;53.296;6.614;2022-12-08T01:46:17;1.40;;;0.22;;
52642;SDS011;38531;53.296;6.614;2022-12-08T01:48:42;0.45;;;0.17;;
52642;SDS011;38531;53.296;6.614;2022-12-08T01:51:08;1.85;;;0.20;;
52642;SDS011;38531;53.296;6.614;2022-12-08T01:53:34;2.58;;;0.22;;
52642;SDS011;38531;53.296;6.614;2022-12-08T01:56:02;2.30;;;0.22;;
52642;SDS011;38531;53.296;6.614;2022-12-08T01:58:35;0.10;;;0.10;;
52642;SDS011;38531;53.296;6.614;2022-12-08T02:01:04;0.10;;;0.10;;
52642;SDS011;38531;53.296;6.614;2022-12-08T02:03:30;0.10;;;0.10;;
52642;SDS011;38531;53.296;6.614;2022-12-08T02:06:02;0.20;;;0.10;;
52642;SDS011;38531;53.296;6.614;2022-12-08T02:08:28;0.10;;;0.10;;
52642;SDS011;38531;53.296;6.614;2022-12-08T02:10:55;0.40;;;0.10;;
52642;SDS011;38531;53.296;6.614;2022-12-08T02:13:21;0.10;;;0.10;;
52642;SDS011;38531;53.296;6.614;2022-12-08T02:16:02;0.75;;;0.20;;
52642;SDS011;38531;53.296;6.614;2022-12-08T02:37:31;0.30;;;0.10;;
52642;SDS011;38531;53.296;6.614;2022-12-08T02:43:21;0.10;;;0.10;;
52642;SDS011;38531;53.296;6.614;2022-12-08T02:46:00;2.00;;;0.30;;
52642;SDS011;38531;53.296;6.614;2022-12-08T02:48:32;0.10;;;0.10;;
52642;SDS011;38531;53.296;6.614;2022-12-08T02:51:02;0.10;;;0.10;;
52642;SDS011;38531;53.296;6.614;2022-12-08T02:53:29;0.10;;;0.10;;
52642;SDS011;38531;53.296;6.614;2022-12-08T03:09:58;0.45;;;0.13;;
52642;SDS011;38531;53.296;6.614;2022-12-08T03:12:33;0.10;;;0.10;;
52642;SDS011;38531;53.296;6.614;2022-12-08T03:15:09;0.10;;;0.10;;
52642;SDS011;38531;53.296;6.614;2022-12-08T03:17:42;0.10;;;0.10;;
52642;SDS011;38531;53.296;6.614;2022-12-08T03:20:15;0.80;;;0.10;;
52642;SDS011;38531;53.296;6.614;2022-12-08T03:22:46;0.63;;;0.20;;
52642;SDS011;38531;53.296;6.614;2022-12-08T03:25:15;0.52;;;0.10;;
52642;SDS011;38531;53.296;6.614;2022-12-08T03:27:43;0.47;;;0.20;;
52642;SDS011;38531;53.296;6.614;2022-12-08T03:30:09;0.45;;;0.10;;
52642;SDS011;38531;53.296;6.614;2022-12-08T03:37:38;0.65;;;0.10;;
52642;SDS011;38531;53.296;6.614;2022-12-08T03:40:06;0.10;;;0.10;;
52642;SDS011;38531;53.296;6.614;2022-12-08T03:42:33;0.10;;;0.10;;
52642;SDS011;38531;53.296;6.614;2022-12-08T03:44:59;0.10;;;0.10;;
52642;SDS011;38531;53.296;6.614;2022-12-08T03:47:25;0.10;;;0.10;;
52642;SDS011;38531;53.296;6.614;2022-12-08T03:49:50;0.32;;;0.15;;
52642;SDS011;38531;53.296;6.614;2022-12-08T03:52:16;0.43;;;0.10;;
52642;SDS011;38531;53.296;6.614;2022-12-08T03:54:42;0.13;;;0.13;;
52642;SDS011;38531;53.296;6.614;2022-12-08T03:57:07;0.10;;;0.10;;
52642;SDS011;38531;53.296;6.614;2022-12-08T03:59:33;0.10;;;0.10;;
52642;SDS011;38531;53.296;6.614;2022-12-08T04:01:59;0.10;;;0.10;;
52642;SDS011;38531;53.296;6.614;2022-12-08T04:04:24;0.38;;;0.10;;
52642;SDS011;38531;53.296;6.614;2022-12-08T04:06:50;0.10;;;0.10;;
52642;SDS011;38531;53.296;6.614;2022-12-08T04:09:16;0.90;;;0.00;;
52642;SDS011;38531;53.296;6.614;2022-12-08T04:11:42;0.65;;;0.10;;
52642;SDS011;38531;53.296;6.614;2022-12-08T04:14:07;0.10;;;0.10;;
52642;SDS011;38531;53.296;6.614;2022-12-08T04:16:33;0.13;;;0.10;;
52642;SDS011;38531;53.296;6.614;2022-12-08T04:18:59;0.10;;;0.10;;
52642;SDS011;38531;53.296;6.614;2022-12-08T04:21:25;0.13;;;0.13;;
52642;SDS011;38531;53.296;6.614;2022-12-08T04:23:50;0.10;;;0.10;;
52642;SDS011;38531;53.296;6.614;2022-12-08T04:26:16;0.20;;;0.20;;
52642;SDS011;38531;53.296;6.614;2022-12-08T04:28:42;0.10;;;0.10;;
52642;SDS011;38531;53.296;6.614;2022-12-08T04:31:07;0.10;;;0.10;;
52642;SDS011;38531;53.296;6.614;2022-12-08T04:33:33;0.20;;;0.10;;
52642;SDS011;38531;53.296;6.614;2022-12-08T04:35:59;0.57;;;0.10;;
52642;SDS011;38531;53.296;6.614;2022-12-08T04:38:26;0.10;;;0.10;;
52642;SDS011;38531;53.296;6.614;2022-12-08T04:40:52;0.17;;;0.17;;
52642;SDS011;38531;53.296;6.614;2022-12-08T04:43:18;2.10;;;0.40;;
52642;SDS011;38531;53.296;6.614;2022-12-08T04:45:44;0.10;;;0.10;;
52642;SDS011;38531;53.296;6.614;2022-12-08T04:48:10;1.10;;;0.20;;
52642;SDS011;38531;53.296;6.614;2022-12-08T04:50:38;2.83;;;0.28;;
52642;SDS011;38531;53.296;6.614;2022-12-08T04:53:05;0.90;;;0.20;;
52642;SDS011;38531;53.296;6.614;2022-12-08T04:55:32;0.35;;;0.20;;
52642;SDS011;38531;53.296;6.614;2022-12-08T04:57:57;1.65;;;0.20;;
52642;SDS011;38531;53.296;6.614;2022-12-08T05:00:23;0.30;;;0.10;;
52642;SDS011;38531;53.296;6.614;2022-12-08T05:02:49;0.10;;;0.10;;
52642;SDS011;38531;53.296;6.614;2022-12-08T05:05:14;0.10;;;0.10;;
52642;SDS011;38531;53.296;6.614;2022-12-08T05:07:40;0.00;;;0.00;;
52642;SDS011;38531;53.296;6.614;2022-12-08T05:10:06;0.10;;;0.10;;
52642;SDS011;38531;53.296;6.614;2022-12-08T05:12:32;0.10;;;0.10;;
52642;SDS011;38531;53.296;6.614;2022-12-08T05:14:58;0.10;;;0.10;;
52642;SDS011;38531;53.296;6.614;2022-12-08T05:17:23;0.20;;;0.10;;
52642;SDS011;38531;53.296;6.614;2022-12-08T05:19:49;0.10;;;0.10;;
52642;SDS011;38531;53.296;6.614;2022-12-08T05:22:15;0.10;;;0.10;;
52642;SDS011;38531;53.296;6.614;2022-12-08T05:24:41;0.28;;;0.20;;
52642;SDS011;38531;53.296;6.614;2022-12-08T05:27:07;0.75;;;0.10;;
52642;SDS011;38531;53.296;6.614;2022-12-08T05:29:33;2.20;;;0.10;;
52642;SDS011;38531;53.296;6.614;2022-12-08T05:31:59;0.65;;;0.10;;
52642;SDS011;38531;53.296;6.614;2022-12-08T05:34:24;0.70;;;0.10;;
52642;SDS011;38531;53.296;6.614;2022-12-08T05:36:50;0.10;;;0.10;;
52642;SDS011;38531;53.296;6.614;2022-12-08T05:39:16;1.25;;;0.20;;
52642;SDS011;38531;53.296;6.614;2022-12-08T05:41:42;0.85;;;0.10;;
52642;SDS011;38531;53.296;6.614;2022-12-08T05:44:07;2.15;;;0.43;;
52642;SDS011;38531;53.296;6.614;2022-12-08T05:46:33;0.22;;;0.10;;
52642;SDS011;38531;53.296;6.614;2022-12-08T05:48:59;1.45;;;0.20;;
52642;SDS011;38531;53.296;6.614;2022-12-08T05:51:28;0.57;;;0.20;;
52642;SDS011;38531;53.296;6.614;2022-12-08T05:53:54;1.55;;;0.20;;
52642;SDS011;38531;53.296;6.614;2022-12-08T05:56:21;0.30;;;0.10;;
52642;SDS011;38531;53.296;6.614;2022-12-08T05:58:46;2.13;;;0.10;;
52642;SDS011;38531;53.296;6.614;2022-12-08T06:03:48;0.10;;;0.10;;
52642;SDS011;38531;53.296;6.614;2022-12-08T06:06:14;0.10;;;0.10;;
52642;SDS011;38531;53.296;6.614;2022-12-08T06:08:40;0.10;;;0.10;;
52642;SDS011;38531;53.296;6.614;2022-12-08T06:11:05;0.10;;;0.10;;
52642;SDS011;38531;53.296;6.614;2022-12-08T06:13:31;1.05;;;0.10;;
52642;SDS011;38531;53.296;6.614;2022-12-08T06:16:02;0.40;;;0.20;;
52642;SDS011;38531;53.296;6.614;2022-12-08T06:18:31;0.10;;;0.10;;
52642;SDS011;38531;53.296;6.614;2022-12-08T06:21:03;0.10;;;0.10;;
52642;SDS011;38531;53.296;6.614;2022-12-08T06:23:30;0.70;;;0.20;;
52642;SDS011;38531;53.296;6.614;2022-12-08T06:25:59;0.10;;;0.10;;
52642;SDS011;38531;53.296;6.614;2022-12-08T06:28:25;0.70;;;0.20;;
52642;SDS011;38531;53.296;6.614;2022-12-08T06:30:52;0.98;;;0.10;;
52642;SDS011;38531;53.296;6.614;2022-12-08T06:33:17;0.10;;;0.10;;
52642;SDS011;38531;53.296;6.614;2022-12-08T06:35:43;1.30;;;0.20;;
52642;SDS011;38531;53.296;6.614;2022-12-08T06:38:08;0.63;;;0.55;;
52642;SDS011;38531;53.296;6.614;2022-12-08T06:40:34;0.30;;;0.30;;
52642;SDS011;38531;53.296;6.614;2022-12-08T06:43:00;0.55;;;0.17;;
52642;SDS011;38531;53.296;6.614;2022-12-08T06:45:25;0.15;;;0.10;;
52642;SDS011;38531;53.296;6.614;2022-12-08T06:47:51;0.10;;;0.10;;
52642;SDS011;38531;53.296;6.614;2022-12-08T06:50:17;0.52;;;0.17;;
52642;SDS011;38531;53.296;6.614;2022-12-08T06:52:42;0.17;;;0.13;;
52642;SDS011;38531;53.296;6.614;2022-12-08T06:55:10;0.28;;;0.20;;
52642;SDS011;38531;53.296;6.614;2022-12-08T06:57:36;0.30;;;0.20;;
52642;SDS011;38531;53.296;6.614;2022-12-08T07:00:03;0.47;;;0.22;;
52642;SDS011;38531;53.296;6.614;2022-12-08T07:02:30;0.47;;;0.20;;
52642;SDS011;38531;53.296;6.614;2022-12-08T07:04:58;0.75;;;0.30;;
52642;SDS011;38531;53.296;6.614;2022-12-08T07:07:23;0.60;;;0.30;;
52642;SDS011;38531;53.296;6.614;2022-12-08T07:09:56;0.30;;;0.20;;
52642;SDS011;38531;53.296;6.614;2022-12-08T07:12:24;0.25;;;0.20;;
52642;SDS011;38531;53.296;6.614;2022-12-08T07:14:53;0.10;;;0.10;;
52642;SDS011;38531;53.296;6.614;2022-12-08T07:17:19;0.10;;;0.10;;
52642;SDS011;38531;53.296;6.614;2022-12-08T07:19:44;0.40;;;0.30;;
52642;SDS011;38531;53.296;6.614;2022-12-08T07:22:13;2.67;;;0.30;;
52642;SDS011;38531;53.296;6.614;2022-12-08T07:24:39;2.78;;;0.30;;
52642;SDS011;38531;53.296;6.614;2022-12-08T07:27:04;0.20;;;0.20;;
52642;SDS011;38531;53.296;6.614;2022-12-08T07:29:33;0.20;;;0.20;;
52642;SDS011;38531;53.296;6.614;2022-12-08T07:31:58;0.63;;;0.20;;
52642;SDS011;38531;53.296;6.614;2022-12-08T07:34:24;0.35;;;0.13;;
52642;SDS011;38531;53.296;6.614;2022-12-08T07:36:50;1.02;;;0.10;;
52642;SDS011;38531;53.296;6.614;2022-12-08T07:39:15;0.10;;;0.10;;
52642;SDS011;38531;53.296;6.614;2022-12-08T07:41:43;0.10;;;0.10;;
52642;SDS011;38531;53.296;6.614;2022-12-08T07:44:09;0.17;;;0.17;;
52642;SDS011;38531;53.296;6.614;2022-12-08T07:46:35;0.20;;;0.20;;
52642;SDS011;38531;53.296;6.614;2022-12-08T07:49:01;0.13;;;0.13;;
52642;SDS011;38531;53.296;6.614;2022-12-08T07:51:26;1.08;;;0.30;;
52642;SDS011;38531;53.296;6.614;2022-12-08T07:53:52;0.38;;;0.28;;
52642;SDS011;38531;53.296;6.614;2022-12-08T07:56:20;0.30;;;0.20;;
52642;SDS011;38531;53.296;6.614;2022-12-08T07:58:47;0.20;;;0.20;;
52642;SDS011;38531;53.296;6.614;2022-12-08T08:01:28;0.28;;;0.20;;
52642;SDS011;38531;53.296;6.614;2022-12-08T08:03:57;0.35;;;0.20;;
52642;SDS011;38531;53.296;6.614;2022-12-08T08:06:25;0.63;;;0.40;;
52642;SDS011;38531;53.296;6.614;2022-12-08T08:08:52;1.17;;;0.30;;
52642;SDS011;38531;53.296;6.614;2022-12-08T08:11:20;0.30;;;0.20;;
52642;SDS011;38531;53.296;6.614;2022-12-08T08:13:46;0.30;;;0.20;;
52642;SDS011;38531;53.296;6.614;2022-12-08T08:16:12;0.20;;;0.20;;
52642;SDS011;38531;53.296;6.614;2022-12-08T08:18:38;0.20;;;0.20;;
52642;SDS011;38531;53.296;6.614;2022-12-08T08:21:07;0.20;;;0.20;;
52642;SDS011;38531;53.296;6.614;2022-12-08T08:23:39;0.30;;;0.20;;
52642;SDS011;38531;53.296;6.614;2022-12-08T08:26:04;0.30;;;0.20;;
52642;SDS011;38531;53.296;6.614;2022-12-08T08:28:30;1.55;;;0.20;;
52642;SDS011;38531;53.296;6.614;2022-12-08T08:30:57;0.50;;;0.20;;
52642;SDS011;38531;53.296;6.614;2022-12-08T08:33:26;0.60;;;0.22;;
52642;SDS011;38531;53.296;6.614;2022-12-08T08:35:52;0.35;;;0.25;;
52642;SDS011;38531;53.296;6.614;2022-12-08T08:38:18;0.80;;;0.40;;
52642;SDS011;38531;53.296;6.614;2022-12-08T08:40:44;0.30;;;0.30;;
52642;SDS011;38531;53.296;6.614;2022-12-08T08:43:10;0.22;;;0.22;;
52642;SDS011;38531;53.296;6.614;2022-12-08T08:46:02;0.22;;;0.20;;
52642;SDS011;38531;53.296;6.614;2022-12-08T08:48:29;2.05;;;0.40;;
52642;SDS011;38531;53.296;6.614;2022-12-08T08:50:56;0.40;;;0.40;;
52642;SDS011;38531;53.296;6.614;2022-12-08T08:53:22;0.57;;;0.38;;
52642;SDS011;38531;53.296;6.614;2022-12-08T08:55:49;3.65;;;0.50;;
52642;SDS011;38531;53.296;6.614;2022-12-08T08:58:14;0.85;;;0.30;;
52642;SDS011;38531;53.296;6.614;2022-12-08T09:00:41;3.25;;;0.40;;
52642;SDS011;38531;53.296;6.614;2022-12-08T09:03:06;1.00;;;0.30;;
52642;SDS011;38531;53.296;6.614;2022-12-08T09:05:32;0.40;;;0.40;;
52642;SDS011;38531;53.296;6.614;2022-12-08T09:07:58;0.20;;;0.20;;
52642;SDS011;38531;53.296;6.614;2022-12-08T09:10:23;0.30;;;0.30;;
52642;SDS011;38531;53.296;6.614;2022-12-08T09:12:49;0.65;;;0.30;;
52642;SDS011;38531;53.296;6.614;2022-12-08T09:15:15;3.03;;;0.28;;
52642;SDS011;38531;53.296;6.614;2022-12-08T09:17:41;0.75;;;0.20;;
52642;SDS011;38531;53.296;6.614;2022-12-08T09:20:07;1.05;;;0.28;;
52642;SDS011;38531;53.296;6.614;2022-12-08T09:22:33;0.65;;;0.30;;
52642;SDS011;38531;53.296;6.614;2022-12-08T09:24:59;0.20;;;0.20;;
52642;SDS011;38531;53.296;6.614;2022-12-08T09:27:24;0.13;;;0.13;;
52642;SDS011;38531;53.296;6.614;2022-12-08T09:29:50;0.10;;;0.10;;
52642;SDS011;38531;53.296;6.614;2022-12-08T09:32:16;1.27;;;0.32;;
52642;SDS011;38531;53.296;6.614;2022-12-08T09:34:41;1.50;;;0.82;;
52642;SDS011;38531;53.296;6.614;2022-12-08T09:37:07;0.60;;;0.30;;
52642;SDS011;38531;53.296;6.614;2022-12-08T09:39:33;0.30;;;0.30;;
52642;SDS011;38531;53.296;6.614;2022-12-08T09:42:00;1.35;;;0.20;;
52642;SDS011;38531;53.296;6.614;2022-12-08T09:46:55;1.90;;;0.40;;
52642;SDS011;38531;53.296;6.614;2022-12-08T09:49:38;0.20;;;0.20;;
52642;SDS011;38531;53.296;6.614;2022-12-08T09:52:17;2.90;;;0.20;;
52642;SDS011;38531;53.296;6.614;2022-12-08T09:54:55;0.20;;;0.20;;
52642;SDS011;38531;53.296;6.614;2022-12-08T09:57:24;1.27;;;0.28;;
52642;SDS011;38531;53.296;6.614;2022-12-08T09:59:52;0.30;;;0.30;;
52642;SDS011;38531;53.296;6.614;2022-12-08T10:02:23;2.85;;;0.35;;
52642;SDS011;38531;53.296;6.614;2022-12-08T10:04:50;0.52;;;0.20;;
52642;SDS011;38531;53.296;6.614;2022-12-08T10:07:26;2.75;;;0.30;;
52642;SDS011;38531;53.296;6.614;2022-12-08T10:12:52;1.23;;;0.20;;
52642;SDS011;38531;53.296;6.614;2022-12-08T10:18:31;1.92;;;0.30;;
52642;SDS011;38531;53.296;6.614;2022-12-08T10:21:20;4.32;;;0.40;;
52642;SDS011;38531;53.296;6.614;2022-12-08T10:23:47;2.45;;;0.30;;
52642;SDS011;38531;53.296;6.614;2022-12-08T10:26:17;2.17;;;0.25;;
52642;SDS011;38531;53.296;6.614;2022-12-08T10:28:45;0.95;;;0.35;;
52642;SDS011;38531;53.296;6.614;2022-12-08T10:31:22;0.45;;;0.30;;
52642;SDS011;38531;53.296;6.614;2022-12-08T10:34:17;0.32;;;0.20;;
52642;SDS011;38531;53.296;6.614;2022-12-08T10:36:49;0.20;;;0.20;;
52642;SDS011;38531;53.296;6.614;2022-12-08T10:47:37;0.13;;;0.13;;
52642;SDS011;38531;53.296;6.614;2022-12-08T10:50:27;0.08;;;0.08;;
52642;SDS011;38531;53.296;6.614;2022-12-08T10:53:12;0.35;;;0.20;;
52642;SDS011;38531;53.296;6.614;2022-12-08T10:55:44;0.20;;;0.10;;
52642;SDS011;38531;53.296;6.614;2022-12-08T10:58:33;0.20;;;0.10;;
52642;SDS011;38531;53.296;6.614;2022-12-08T11:01:02;0.52;;;0.20;;
52642;SDS011;38531;53.296;6.614;2022-12-08T11:03:50;0.57;;;0.13;;
52642;SDS011;38531;53.296;6.614;2022-12-08T11:06:29;0.73;;;0.20;;
52642;SDS011;38531;53.296;6.614;2022-12-08T11:08:59;0.20;;;0.20;;
52642;SDS011;38531;53.296;6.614;2022-12-08T11:14:17;0.10;;;0.10;;
52642;SDS011;38531;53.296;6.614;2022-12-08T11:16:50;0.28;;;0.10;;
52642;SDS011;38531;53.296;6.614;2022-12-08T11:19:19;0.80;;;0.20;;
52642;SDS011;38531;53.296;6.614;2022-12-08T11:21:46;0.15;;;0.15;;
52642;SDS011;38531;53.296;6.614;2022-12-08T11:26:42;0.45;;;0.10;;
52642;SDS011;38531;53.296;6.614;2022-12-08T11:29:23;0.10;;;0.10;;
52642;SDS011;38531;53.296;6.614;2022-12-08T11:31:56;0.10;;;0.10;;
52642;SDS011;38531;53.296;6.614;2022-12-08T11:34:56;3.38;;;0.15;;
52642;SDS011;38531;53.296;6.614;2022-12-08T11:37:29;0.20;;;0.20;;
52642;SDS011;38531;53.296;6.614;2022-12-08T11:39:59;0.10;;;0.10;;
52642;SDS011;38531;53.296;6.614;2022-12-08T11:42:57;0.22;;;0.10;;
52642;SDS011;38531;53.296;6.614;2022-12-08T11:45:40;0.60;;;0.20;;
52642;SDS011;38531;53.296;6.614;2022-12-08T11:48:14;0.22;;;0.20;;
52642;SDS011;38531;53.296;6.614;2022-12-08T11:50:50;0.28;;;0.20;;
52642;SDS011;38531;53.296;6.614;2022-12-08T11:53:25;0.38;;;0.20;;
52642;SDS011;38531;53.296;6.614;2022-12-08T11:55:59;0.10;;;0.10;;
52642;SDS011;38531;53.296;6.614;2022-12-08T11:58:35;0.32;;;0.17;;
52642;SDS011;38531;53.296;6.614;2022-12-08T12:01:05;0.30;;;0.10;;
52642;SDS011;38531;53.296;6.614;2022-12-08T12:03:42;0.15;;;0.10;;
52642;SDS011;38531;53.296;6.614;2022-12-08T12:11:49;0.05;;;0.05;;
52642;SDS011;38531;53.296;6.614;2022-12-08T12:20:23;2.75;;;0.63;;
52642;SDS011;38531;53.296;6.614;2022-12-08T12:26:00;1.10;;;0.20;;
52642;SDS011;38531;53.296;6.614;2022-12-08T12:28:31;2.08;;;0.30;;
52642;SDS011;38531;53.296;6.614;2022-12-08T12:31:23;0.40;;;0.20;;
52642;SDS011;38531;53.296;6.614;2022-12-08T12:33:54;0.73;;;0.20;;
52642;SDS011;38531;53.296;6.614;2022-12-08T12:36:29;1.30;;;0.10;;
52642;SDS011;38531;53.296;6.614;2022-12-08T12:38:56;0.22;;;0.10;;
52642;SDS011;38531;53.296;6.614;2022-12-08T12:47:01;0.47;;;0.20;;
52642;SDS011;38531;53.296;6.614;2022-12-08T12:50:03;0.55;;;0.20;;
52642;SDS011;38531;53.296;6.614;2022-12-08T12:57:24;0.30;;;0.30;;
52642;SDS011;38531;53.296;6.614;2022-12-08T13:05:12;3.97;;;0.70;;
52642;SDS011;38531;53.296;6.614;2022-12-08T13:07:44;0.70;;;0.40;;
52642;SDS011;38531;53.296;6.614;2022-12-08T13:13:03;0.15;;;0.10;;
52642;SDS011;38531;53.296;6.614;2022-12-08T13:21:09;0.38;;;0.20;;
52642;SDS011;38531;53.296;6.614;2022-12-08T13:29:38;1.23;;;0.40;;
52642;SDS011;38531;53.296;6.614;2022-12-08T13:34:37;2.30;;;0.30;;
52642;SDS011;38531;53.296;6.614;2022-12-08T13:45:04;0.10;;;0.10;;
52642;SDS011;38531;53.296;6.614;2022-12-08T13:50:33;0.10;;;0.10;;
52642;SDS011;38531;53.296;6.614;2022-12-08T13:53:17;0.10;;;0.10;;
52642;SDS011;38531;53.296;6.614;2022-12-08T13:55:50;0.32;;;0.30;;
52642;SDS011;38531;53.296;6.614;2022-12-08T14:00:59;0.10;;;0.10;;
52642;SDS011;38531;53.296;6.614;2022-12-08T14:03:26;0.10;;;0.10;;
52642;SDS011;38531;53.296;6.614;2022-12-08T14:05:51;0.20;;;0.10;;
52642;SDS011;38531;53.296;6.614;2022-12-08T14:08:38;0.32;;;0.20;;
52642;SDS011;38531;53.296;6.614;2022-12-08T14:11:07;0.95;;;0.40;;
52642;SDS011;38531;53.296;6.614;2022-12-08T14:13:58;1.00;;;0.50;;
52642;SDS011;38531;53.296;6.614;2022-12-08T14:16:38;1.85;;;0.70;;
52642;SDS011;38531;53.296;6.614;2022-12-08T14:19:20;1.10;;;0.30;;
52642;SDS011;38531;53.296;6.614;2022-12-08T14:21:58;7.00;;;0.40;;
52642;SDS011;38531;53.296;6.614;2022-12-08T14:24:26;0.20;;;0.20;;
52642;SDS011;38531;53.296;6.614;2022-12-08T14:26:57;0.55;;;0.40;;
52642;SDS011;38531;53.296;6.614;2022-12-08T14:29:44;0.20;;;0.20;;
52642;SDS011;38531;53.296;6.614;2022-12-08T14:37:52;0.65;;;0.38;;
52642;SDS011;38531;53.296;6.614;2022-12-08T14:40:27;1.75;;;0.40;;
52642;SDS011;38531;53.296;6.614;2022-12-08T14:43:09;0.40;;;0.30;;
52642;SDS011;38531;53.296;6.614;2022-12-08T14:53:41;0.73;;;0.20;;
52642;SDS011;38531;53.296;6.614;2022-12-08T14:56:30;0.20;;;0.20;;
52642;SDS011;38531;53.296;6.614;2022-12-08T14:59:12;0.38;;;0.20;;
52642;SDS011;38531;53.296;6.614;2022-12-08T15:01:43;2.50;;;0.20;;
52642;SDS011;38531;53.296;6.614;2022-12-08T15:09:40;0.82;;;0.20;;
52642;SDS011;38531;53.296;6.614;2022-12-08T15:14:58;2.05;;;0.40;;
52642;SDS011;38531;53.296;6.614;2022-12-08T15:17:34;2.35;;;1.00;;
52642;SDS011;38531;53.296;6.614;2022-12-08T15:23:03;4.22;;;0.85;;
52642;SDS011;38531;53.296;6.614;2022-12-08T15:25:30;2.28;;;0.82;;
52642;SDS011;38531;53.296;6.614;2022-12-08T15:27:56;1.13;;;0.45;;
52642;SDS011;38531;53.296;6.614;2022-12-08T15:30:26;1.33;;;0.52;;
52642;SDS011;38531;53.296;6.614;2022-12-08T15:32:52;1.05;;;0.55;;
52642;SDS011;38531;53.296;6.614;2022-12-08T15:35:22;1.27;;;0.50;;
52642;SDS011;38531;53.296;6.614;2022-12-08T15:37:48;1.30;;;0.52;;
52642;SDS011;38531;53.296;6.614;2022-12-08T15:40:15;1.02;;;0.60;;
52642;SDS011;38531;53.296;6.614;2022-12-08T15:42:43;5.63;;;0.75;;
52642;SDS011;38531;53.296;6.614;2022-12-08T15:45:12;2.47;;;1.10;;
52642;SDS011;38531;53.296;6.614;2022-12-08T15:47:38;4.45;;;1.45;;
52642;SDS011;38531;53.296;6.614;2022-12-08T15:50:06;6.55;;;2.05;;
52642;SDS011;38531;53.296;6.614;2022-12-08T15:52:38;3.95;;;1.50;;
52642;SDS011;38531;53.296;6.614;2022-12-08T15:55:03;5.57;;;1.98;;
52642;SDS011;38531;53.296;6.614;2022-12-08T15:57:30;4.72;;;1.50;;
52642;SDS011;38531;53.296;6.614;2022-12-08T15:59:56;4.05;;;1.38;;
52642;SDS011;38531;53.296;6.614;2022-12-08T16:02:23;3.65;;;1.13;;
52642;SDS011;38531;53.296;6.614;2022-12-08T16:04:48;4.03;;;1.17;;
52642;SDS011;38531;53.296;6.614;2022-12-08T16:07:24;1.63;;;0.77;;
52642;SDS011;38531;53.296;6.614;2022-12-08T16:09:52;1.70;;;0.90;;
52642;SDS011;38531;53.296;6.614;2022-12-08T16:12:21;2.00;;;0.63;;
52642;SDS011;38531;53.296;6.614;2022-12-08T16:15:07;2.38;;;0.70;;
52642;SDS011;38531;53.296;6.614;2022-12-08T16:17:33;1.90;;;0.90;;
52642;SDS011;38531;53.296;6.614;2022-12-08T16:20:00;2.83;;;0.98;;
52642;SDS011;38531;53.296;6.614;2022-12-08T16:22:28;1.58;;;0.82;;
52642;SDS011;38531;53.296;6.614;2022-12-08T16:24:56;3.22;;;0.80;;
52642;SDS011;38531;53.296;6.614;2022-12-08T16:27:23;1.13;;;0.60;;
52642;SDS011;38531;53.296;6.614;2022-12-08T16:29:52;2.47;;;0.47;;
52642;SDS011;38531;53.296;6.614;2022-12-08T16:32:19;1.17;;;0.50;;
52642;SDS011;38531;53.296;6.614;2022-12-08T16:34:45;0.65;;;0.50;;
52642;SDS011;38531;53.296;6.614;2022-12-08T16:37:14;0.88;;;0.57;;
52642;SDS011;38531;53.296;6.614;2022-12-08T16:39:42;1.63;;;0.60;;
52642;SDS011;38531;53.296;6.614;2022-12-08T16:42:17;0.75;;;0.50;;
52642;SDS011;38531;53.296;6.614;2022-12-08T16:45:14;0.80;;;0.40;;
52642;SDS011;38531;53.296;6.614;2022-12-08T16:47:43;0.57;;;0.50;;
52642;SDS011;38531;53.296;6.614;2022-12-08T16:50:15;1.17;;;0.60;;
52642;SDS011;38531;53.296;6.614;2022-12-08T16:53:04;0.52;;;0.32;;
52642;SDS011;38531;53.296;6.614;2022-12-08T16:55:32;0.80;;;0.35;;
52642;SDS011;38531;53.296;6.614;2022-12-08T16:57:58;0.68;;;0.40;;
52642;SDS011;38531;53.296;6.614;2022-12-08T17:00:25;0.85;;;0.47;;
52642;SDS011;38531;53.296;6.614;2022-12-08T17:02:52;0.82;;;0.40;;
52642;SDS011;38531;53.296;6.614;2022-12-08T17:05:19;0.80;;;0.50;;
52642;SDS011;38531;53.296;6.614;2022-12-08T17:07:46;1.40;;;0.50;;
52642;SDS011;38531;53.296;6.614;2022-12-08T17:10:19;2.92;;;0.98;;
52642;SDS011;38531;53.296;6.614;2022-12-08T17:12:47;4.35;;;1.05;;
52642;SDS011;38531;53.296;6.614;2022-12-08T17:15:19;3.80;;;1.40;;
52642;SDS011;38531;53.296;6.614;2022-12-08T17:17:46;3.40;;;1.40;;
52642;SDS011;38531;53.296;6.614;2022-12-08T17:20:18;5.40;;;1.52;;
52642;SDS011;38531;53.296;6.614;2022-12-08T17:22:46;2.72;;;1.80;;
52642;SDS011;38531;53.296;6.614;2022-12-08T17:25:12;4.07;;;1.70;;
52642;SDS011;38531;53.296;6.614;2022-12-08T17:27:38;3.85;;;1.80;;
52642;SDS011;38531;53.296;6.614;2022-12-08T17:30:06;6.68;;;1.63;;
52642;SDS011;38531;53.296;6.614;2022-12-08T17:32:32;5.03;;;1.80;;